sensor_id;sensor_type;location;lat;lon;timestamp;pressure;altitude;pressure_sealevel;temperature;humidity
51781;BME280;37844;57.126;24.288;2023-08-17T00:01:06;101992.56;;;22.86;100.00
51781;BME280;37844;57.126;24.288;2023-08-17T00:03:50;102007.28;;;23.00;100.00
51781;BME280;37844;57.126;24.288;2023-08-17T00:06:34;102006.50;;;22.92;100.00
51781;BME280;37844;57.126;24.288;2023-08-17T00:09:18;102004.84;;;22.86;100.00
51781;BME280;37844;57.126;24.288;2023-08-17T00:14:47;102002.06;;;22.95;100.00
51781;BME280;37844;57.126;24.288;2023-08-17T00:17:31;102016.97;;;22.95;100.00
51781;BME280;37844;57.126;24.288;2023-08-17T00:20:16;102009.19;;;22.90;100.00
51781;BME280;37844;57.126;24.288;2023-08-17T00:23:00;102012.66;;;22.92;100.00
51781;BME280;37844;57.126;24.288;2023-08-17T00:25:45;102011.72;;;22.95;100.00
51781;BME280;37844;57.126;24.288;2023-08-17T00:28:29;102012.59;;;22.94;100.00
51781;BME280;37844;57.126;24.288;2023-08-17T00:31:13;102007.50;;;22.86;100.00
51781;BME280;37844;57.126;24.288;2023-08-17T00:33:56;102018.94;;;22.83;100.00
51781;BME280;37844;57.126;24.288;2023-08-17T00:36:41;102019.81;;;22.82;100.00
51781;BME280;37844;57.126;24.288;2023-08-17T00:39:25;102021.63;;;22.80;100.00
51781;BME280;37844;57.126;24.288;2023-08-17T00:42:09;102025.97;;;22.81;100.00
51781;BME280;37844;57.126;24.288;2023-08-17T00:44:53;102023.34;;;22.81;100.00
51781;BME280;37844;57.126;24.288;2023-08-17T00:47:37;102025.22;;;22.75;100.00
51781;BME280;37844;57.126;24.288;2023-08-17T00:50:22;102028.69;;;22.75;100.00
51781;BME280;37844;57.126;24.288;2023-08-17T00:53:07;102031.28;;;22.78;100.00
51781;BME280;37844;57.126;24.288;2023-08-17T00:55:57;102040.06;;;22.77;100.00
51781;BME280;37844;57.126;24.288;2023-08-17T00:58:42;102048.88;;;22.75;100.00
51781;BME280;37844;57.126;24.288;2023-08-17T01:01:27;102043.59;;;22.75;100.00
51781;BME280;37844;57.126;24.288;2023-08-17T01:04:11;102032.31;;;22.70;100.00
51781;BME280;37844;57.126;24.288;2023-08-17T01:06:55;102045.28;;;22.79;100.00
51781;BME280;37844;57.126;24.288;2023-08-17T01:09:39;102042.59;;;22.82;100.00
51781;BME280;37844;57.126;24.288;2023-08-17T01:12:31;102037.34;;;22.82;100.00
51781;BME280;37844;57.126;24.288;2023-08-17T01:15:36;102032.94;;;22.84;100.00
51781;BME280;37844;57.126;24.288;2023-08-17T01:18:23;102039.91;;;22.85;100.00
51781;BME280;37844;57.126;24.288;2023-08-17T01:21:11;102034.56;;;22.91;100.00
51781;BME280;37844;57.126;24.288;2023-08-17T01:23:58;102032.03;;;22.85;100.00
51781;BME280;37844;57.126;24.288;2023-08-17T01:26:44;102034.66;;;22.85;100.00
51781;BME280;37844;57.126;24.288;2023-08-17T01:29:28;102031.16;;;22.84;100.00
51781;BME280;37844;57.126;24.288;2023-08-17T01:32:21;102026.81;;;22.83;100.00
51781;BME280;37844;57.126;24.288;2023-08-17T01:35:19;102033.75;;;22.88;100.00
51781;BME280;37844;57.126;24.288;2023-08-17T01:38:09;102032.91;;;22.85;100.00
51781;BME280;37844;57.126;24.288;2023-08-17T01:40:56;102032.03;;;22.85;100.00
51781;BME280;37844;57.126;24.288;2023-08-17T01:43:43;102036.50;;;22.80;100.00
51781;BME280;37844;57.126;24.288;2023-08-17T01:46:34;102037.25;;;22.88;100.00
51781;BME280;37844;57.126;24.288;2023-08-17T01:49:18;102042.44;;;22.91;100.00
51781;BME280;37844;57.126;24.288;2023-08-17T01:52:03;102039.03;;;22.86;100.00
51781;BME280;37844;57.126;24.288;2023-08-17T01:54:47;102039.81;;;22.91;100.00
51781;BME280;37844;57.126;24.288;2023-08-17T01:57:30;102039.03;;;22.86;100.00
51781;BME280;37844;57.126;24.288;2023-08-17T02:02:59;102053.88;;;22.90;100.00
51781;BME280;37844;57.126;24.288;2023-08-17T02:05:46;102041.75;;;22.81;100.00
51781;BME280;37844;57.126;24.288;2023-08-17T02:08:33;102041.72;;;22.83;100.00
51781;BME280;37844;57.126;24.288;2023-08-17T02:11:17;102045.28;;;22.80;100.00
51781;BME280;37844;57.126;24.288;2023-08-17T02:14:01;102047.78;;;22.88;100.00
51781;BME280;37844;57.126;24.288;2023-08-17T02:16:45;102044.28;;;22.86;100.00
51781;BME280;37844;57.126;24.288;2023-08-17T02:19:29;102051.25;;;22.89;100.00
51781;BME280;37844;57.126;24.288;2023-08-17T02:22:14;102043.53;;;22.79;100.00
51781;BME280;37844;57.126;24.288;2023-08-17T02:24:58;102053.25;;;22.74;100.00
51781;BME280;37844;57.126;24.288;2023-08-17T02:27:42;102053.25;;;22.76;100.00
51781;BME280;37844;57.126;24.288;2023-08-17T02:30:26;102048.78;;;22.81;100.00
51781;BME280;37844;57.126;24.288;2023-08-17T02:33:10;102051.34;;;22.82;100.00
51781;BME280;37844;57.126;24.288;2023-08-17T02:35:54;102049.66;;;22.80;100.00
51781;BME280;37844;57.126;24.288;2023-08-17T02:38:38;102049.78;;;22.74;100.00
51781;BME280;37844;57.126;24.288;2023-08-17T02:41:22;102051.63;;;22.69;100.00
51781;BME280;37844;57.126;24.288;2023-08-17T02:44:06;102051.47;;;22.76;100.00
51781;BME280;37844;57.126;24.288;2023-08-17T02:46:50;102055.13;;;22.68;100.00
51781;BME280;37844;57.126;24.288;2023-08-17T02:49:34;102066.34;;;22.77;100.00
51781;BME280;37844;57.126;24.288;2023-08-17T02:52:19;102059.25;;;22.82;100.00
51781;BME280;37844;57.126;24.288;2023-08-17T02:55:03;102063.75;;;22.76;100.00
51781;BME280;37844;57.126;24.288;2023-08-17T02:57:47;102061.16;;;22.74;100.00
51781;BME280;37844;57.126;24.288;2023-08-17T03:00:31;102069.97;;;22.72;100.00
51781;BME280;37844;57.126;24.288;2023-08-17T03:03:15;102076.97;;;22.71;100.00
51781;BME280;37844;57.126;24.288;2023-08-17T03:05:59;102079.59;;;22.71;100.00
51781;BME280;37844;57.126;24.288;2023-08-17T03:08:44;102078.91;;;22.61;100.00
51781;BME280;37844;57.126;24.288;2023-08-17T03:11:28;102083.19;;;22.67;100.00
51781;BME280;37844;57.126;24.288;2023-08-17T03:14:12;102089.63;;;22.48;100.00
51781;BME280;37844;57.126;24.288;2023-08-17T03:16:56;102081.59;;;22.57;100.00
51781;BME280;37844;57.126;24.288;2023-08-17T03:19:40;102078.03;;;22.59;100.00
51781;BME280;37844;57.126;24.288;2023-08-17T03:22:24;102083.31;;;22.59;100.00
51781;BME280;37844;57.126;24.288;2023-08-17T03:25:09;102089.38;;;22.63;100.00
51781;BME280;37844;57.126;24.288;2023-08-17T03:27:53;102088.44;;;22.67;100.00
51781;BME280;37844;57.126;24.288;2023-08-17T03:30:37;102084.09;;;22.63;100.00
51781;BME280;37844;57.126;24.288;2023-08-17T03:33:21;102089.41;;;22.61;100.00
51781;BME280;37844;57.126;24.288;2023-08-17T03:36:05;102091.19;;;22.58;100.00
51781;BME280;37844;57.126;24.288;2023-08-17T03:38:49;102096.59;;;22.49;100.00
51781;BME280;37844;57.126;24.288;2023-08-17T03:41:33;102097.50;;;22.46;100.00
51781;BME280;37844;57.126;24.288;2023-08-17T03:44:20;102087.00;;;22.44;100.00
51781;BME280;37844;57.126;24.288;2023-08-17T03:47:04;102099.09;;;22.56;100.00
51781;BME280;37844;57.126;24.288;2023-08-17T03:49:48;102097.38;;;22.57;100.00
51781;BME280;37844;57.126;24.288;2023-08-17T03:52:32;102102.56;;;22.58;100.00
51781;BME280;37844;57.126;24.288;2023-08-17T03:55:16;102107.88;;;22.55;100.00
51781;BME280;37844;57.126;24.288;2023-08-17T03:57:59;102107.97;;;22.49;100.00
51781;BME280;37844;57.126;24.288;2023-08-17T04:00:50;102100.84;;;22.57;100.00
51781;BME280;37844;57.126;24.288;2023-08-17T04:03:34;102100.06;;;22.52;100.00
51781;BME280;37844;57.126;24.288;2023-08-17T04:06:18;102107.81;;;22.60;100.00
51781;BME280;37844;57.126;24.288;2023-08-17T04:09:02;102101.72;;;22.58;100.00
51781;BME280;37844;57.126;24.288;2023-08-17T04:11:47;102100.78;;;22.60;100.00
51781;BME280;37844;57.126;24.288;2023-08-17T04:14:31;102104.28;;;22.62;100.00
51781;BME280;37844;57.126;24.288;2023-08-17T04:17:15;102103.34;;;22.67;100.00
51781;BME280;37844;57.126;24.288;2023-08-17T04:19:59;102099.72;;;22.72;100.00
51781;BME280;37844;57.126;24.288;2023-08-17T04:22:43;102108.41;;;22.79;100.00
51781;BME280;37844;57.126;24.288;2023-08-17T04:25:27;102108.41;;;22.77;100.00
51781;BME280;37844;57.126;24.288;2023-08-17T04:28:11;102103.94;;;22.84;100.00
51781;BME280;37844;57.126;24.288;2023-08-17T04:30:55;102096.88;;;22.86;100.00
51781;BME280;37844;57.126;24.288;2023-08-17T04:33:40;102091.47;;;22.95;100.00
51781;BME280;37844;57.126;24.288;2023-08-17T04:36:24;102104.56;;;22.97;100.00
51781;BME280;37844;57.126;24.288;2023-08-17T04:39:08;102105.53;;;22.93;100.00
51781;BME280;37844;57.126;24.288;2023-08-17T04:41:53;102089.66;;;23.00;100.00
51781;BME280;37844;57.126;24.288;2023-08-17T04:44:37;102097.25;;;23.16;100.00
51781;BME280;37844;57.126;24.288;2023-08-17T04:47:21;102093.69;;;23.21;100.00
51781;BME280;37844;57.126;24.288;2023-08-17T04:50:05;102095.22;;;23.33;100.00
51781;BME280;37844;57.126;24.288;2023-08-17T04:52:49;102102.09;;;23.40;100.00
51781;BME280;37844;57.126;24.288;2023-08-17T04:55:33;102102.63;;;23.58;100.00
51781;BME280;37844;57.126;24.288;2023-08-17T04:58:17;102113.09;;;23.61;100.00
51781;BME280;37844;57.126;24.288;2023-08-17T05:01:01;102115.69;;;23.64;100.00
51781;BME280;37844;57.126;24.288;2023-08-17T05:03:46;102120.09;;;23.63;100.00
51781;BME280;37844;57.126;24.288;2023-08-17T05:06:30;102117.28;;;23.71;100.00
51781;BME280;37844;57.126;24.288;2023-08-17T05:09:14;102126.00;;;23.75;100.00
51781;BME280;37844;57.126;24.288;2023-08-17T05:11:58;102127.84;;;23.69;100.00
51781;BME280;37844;57.126;24.288;2023-08-17T05:14:42;102133.09;;;23.69;100.00
51781;BME280;37844;57.126;24.288;2023-08-17T05:17:26;102132.22;;;23.70;100.00
51781;BME280;37844;57.126;24.288;2023-08-17T05:20:10;102132.19;;;23.72;100.00
51781;BME280;37844;57.126;24.288;2023-08-17T05:22:56;102141.53;;;23.88;100.00
51781;BME280;37844;57.126;24.288;2023-08-17T05:25:41;102137.50;;;24.14;100.00
51781;BME280;37844;57.126;24.288;2023-08-17T05:28:25;102129.91;;;24.39;100.00
51781;BME280;37844;57.126;24.288;2023-08-17T05:31:09;102129.97;;;24.36;100.00
51781;BME280;37844;57.126;24.288;2023-08-17T05:33:53;102138.53;;;24.46;100.00
51781;BME280;37844;57.126;24.288;2023-08-17T05:36:37;102134.41;;;24.34;100.00
51781;BME280;37844;57.126;24.288;2023-08-17T05:39:21;102138.13;;;24.25;100.00
51781;BME280;37844;57.126;24.288;2023-08-17T05:42:05;102133.56;;;24.32;100.00
51781;BME280;37844;57.126;24.288;2023-08-17T05:44:50;102134.41;;;24.34;100.00
51781;BME280;37844;57.126;24.288;2023-08-17T05:47:33;102137.41;;;24.58;100.00
51781;BME280;37844;57.126;24.288;2023-08-17T05:50:17;102136.84;;;24.82;100.00
51781;BME280;37844;57.126;24.288;2023-08-17T05:53:01;102136.66;;;24.90;100.00
51781;BME280;37844;57.126;24.288;2023-08-17T05:55:45;102135.41;;;25.05;100.00
51781;BME280;37844;57.126;24.288;2023-08-17T05:58:30;102134.78;;;25.29;100.00
51781;BME280;37844;57.126;24.288;2023-08-17T06:01:14;102138.56;;;25.53;100.00
51781;BME280;37844;57.126;24.288;2023-08-17T06:03:58;102142.00;;;25.88;100.00
51781;BME280;37844;57.126;24.288;2023-08-17T06:06:42;102140.47;;;26.11;100.00
51781;BME280;37844;57.126;24.288;2023-08-17T06:09:26;102147.84;;;26.29;100.00
51781;BME280;37844;57.126;24.288;2023-08-17T06:12:10;102144.06;;;26.93;100.00
51781;BME280;37844;57.126;24.288;2023-08-17T06:14:54;102139.56;;;27.97;100.00
51781;BME280;37844;57.126;24.288;2023-08-17T06:17:38;102130.78;;;29.27;100.00
51781;BME280;37844;57.126;24.288;2023-08-17T06:20:22;102142.94;;;30.11;100.00
51781;BME280;37844;57.126;24.288;2023-08-17T06:23:07;102143.00;;;31.19;96.47
51781;BME280;37844;57.126;24.288;2023-08-17T06:25:51;102151.88;;;31.86;89.24
51781;BME280;37844;57.126;24.288;2023-08-17T06:28:35;102149.94;;;32.69;81.31
51781;BME280;37844;57.126;24.288;2023-08-17T06:31:19;102155.63;;;32.47;77.80
51781;BME280;37844;57.126;24.288;2023-08-17T06:34:03;102151.25;;;32.14;77.33
51781;BME280;37844;57.126;24.288;2023-08-17T06:36:58;102152.88;;;31.67;76.28
51781;BME280;37844;57.126;24.288;2023-08-17T06:39:42;102163.91;;;31.26;77.29
51781;BME280;37844;57.126;24.288;2023-08-17T06:42:26;102165.09;;;30.67;78.46
51781;BME280;37844;57.126;24.288;2023-08-17T06:45:10;102167.16;;;30.24;81.39
51781;BME280;37844;57.126;24.288;2023-08-17T06:47:54;102167.34;;;29.82;83.11
51781;BME280;37844;57.126;24.288;2023-08-17T06:50:38;102168.69;;;29.51;84.91
51781;BME280;37844;57.126;24.288;2023-08-17T06:53:22;102170.47;;;29.30;87.47
51781;BME280;37844;57.126;24.288;2023-08-17T06:56:09;102176.38;;;29.77;87.88
51781;BME280;37844;57.126;24.288;2023-08-17T06:58:53;102186.69;;;29.44;88.01
51781;BME280;37844;57.126;24.288;2023-08-17T07:01:37;102180.03;;;28.91;89.76
51781;BME280;37844;57.126;24.288;2023-08-17T07:04:21;102184.13;;;28.32;92.95
51781;BME280;37844;57.126;24.288;2023-08-17T07:07:13;102182.69;;;27.77;97.23
51781;BME280;37844;57.126;24.288;2023-08-17T07:09:58;102192.78;;;27.40;100.00
51781;BME280;37844;57.126;24.288;2023-08-17T07:12:42;102185.25;;;27.01;100.00
51781;BME280;37844;57.126;24.288;2023-08-17T07:15:38;102182.50;;;27.04;100.00
51781;BME280;37844;57.126;24.288;2023-08-17T07:18:22;102190.03;;;26.62;100.00
51781;BME280;37844;57.126;24.288;2023-08-17T07:21:06;102182.59;;;26.75;100.00
51781;BME280;37844;57.126;24.288;2023-08-17T07:23:54;102182.75;;;26.70;100.00
51781;BME280;37844;57.126;24.288;2023-08-17T07:26:39;102179.59;;;26.85;100.00
51781;BME280;37844;57.126;24.288;2023-08-17T07:29:24;102182.06;;;27.17;100.00
51781;BME280;37844;57.126;24.288;2023-08-17T07:32:08;102186.88;;;27.05;100.00
51781;BME280;37844;57.126;24.288;2023-08-17T07:34:52;102189.63;;;27.02;100.00
51781;BME280;37844;57.126;24.288;2023-08-17T07:37:37;102197.13;;;26.88;100.00
51781;BME280;37844;57.126;24.288;2023-08-17T07:40:21;102196.97;;;26.66;100.00
51781;BME280;37844;57.126;24.288;2023-08-17T07:43:04;102201.31;;;26.39;100.00
51781;BME280;37844;57.126;24.288;2023-08-17T07:45:55;102204.97;;;26.33;100.00
51781;BME280;37844;57.126;24.288;2023-08-17T07:48:40;102218.34;;;26.29;100.00
51781;BME280;37844;57.126;24.288;2023-08-17T07:51:24;102202.13;;;26.71;100.00
51781;BME280;37844;57.126;24.288;2023-08-17T07:54:08;102210.16;;;26.96;100.00
51781;BME280;37844;57.126;24.288;2023-08-17T07:56:52;102205.06;;;27.68;100.00
51781;BME280;37844;57.126;24.288;2023-08-17T07:59:36;102208.88;;;28.09;100.00
51781;BME280;37844;57.126;24.288;2023-08-17T08:02:20;102200.63;;;28.64;100.00
51781;BME280;37844;57.126;24.288;2023-08-17T08:05:04;102211.03;;;28.91;99.52
51781;BME280;37844;57.126;24.288;2023-08-17T08:07:49;102221.63;;;29.35;95.54
51781;BME280;37844;57.126;24.288;2023-08-17T08:10:34;102216.59;;;29.29;91.84
51781;BME280;37844;57.126;24.288;2023-08-17T08:13:18;102208.63;;;29.29;91.95
51781;BME280;37844;57.126;24.288;2023-08-17T08:16:02;102210.25;;;29.52;90.07
51781;BME280;37844;57.126;24.288;2023-08-17T08:18:46;102208.88;;;29.43;90.47
51781;BME280;37844;57.126;24.288;2023-08-17T08:21:30;102208.13;;;29.39;91.17
51781;BME280;37844;57.126;24.288;2023-08-17T08:24:14;102218.50;;;29.25;90.11
51781;BME280;37844;57.126;24.288;2023-08-17T08:26:58;102213.09;;;29.69;89.41
51781;BME280;37844;57.126;24.288;2023-08-17T08:29:42;102222.81;;;29.48;87.96
51781;BME280;37844;57.126;24.288;2023-08-17T08:32:26;102231.44;;;29.12;87.28
51781;BME280;37844;57.126;24.288;2023-08-17T08:35:10;102226.22;;;28.87;88.56
51781;BME280;37844;57.126;24.288;2023-08-17T08:37:54;102233.56;;;28.59;90.24
51781;BME280;37844;57.126;24.288;2023-08-17T08:40:40;102232.69;;;28.58;90.66
51781;BME280;37844;57.126;24.288;2023-08-17T08:43:26;102241.50;;;28.35;92.06
51781;BME280;37844;57.126;24.288;2023-08-17T08:46:11;102235.69;;;28.25;93.25
51781;BME280;37844;57.126;24.288;2023-08-17T08:48:56;102231.41;;;28.45;92.45
51781;BME280;37844;57.126;24.288;2023-08-17T08:51:48;102222.25;;;28.75;91.04
51781;BME280;37844;57.126;24.288;2023-08-17T08:54:35;102218.94;;;28.92;91.24
51781;BME280;37844;57.126;24.288;2023-08-17T08:57:21;102228.88;;;28.87;88.39
51781;BME280;37844;57.126;24.288;2023-08-17T09:00:06;102220.25;;;29.26;87.37
51781;BME280;37844;57.126;24.288;2023-08-17T09:02:51;102222.38;;;29.38;83.03
51781;BME280;37844;57.126;24.288;2023-08-17T09:05:37;102229.66;;;29.33;81.03
51781;BME280;37844;57.126;24.288;2023-08-17T09:08:24;102222.34;;;29.18;79.61
51781;BME280;37844;57.126;24.288;2023-08-17T09:11:09;102233.91;;;29.17;77.39
51781;BME280;37844;57.126;24.288;2023-08-17T09:13:53;102244.56;;;29.15;76.94
51781;BME280;37844;57.126;24.288;2023-08-17T09:16:38;102241.28;;;28.41;77.76
51781;BME280;37844;57.126;24.288;2023-08-17T09:19:22;102237.31;;;28.29;79.32
51781;BME280;37844;57.126;24.288;2023-08-17T09:22:06;102245.53;;;27.98;80.36
51781;BME280;37844;57.126;24.288;2023-08-17T09:24:51;102260.50;;;27.74;82.39
51781;BME280;37844;57.126;24.288;2023-08-17T09:27:38;102253.53;;;27.97;84.25
51781;BME280;37844;57.126;24.288;2023-08-17T09:30:22;102240.66;;;28.34;82.05
51781;BME280;37844;57.126;24.288;2023-08-17T09:33:06;102247.22;;;28.71;81.27
51781;BME280;37844;57.126;24.288;2023-08-17T09:35:52;102248.25;;;28.89;78.47
51781;BME280;37844;57.126;24.288;2023-08-17T09:38:36;102248.41;;;28.86;77.78
51781;BME280;37844;57.126;24.288;2023-08-17T09:41:22;102250.88;;;28.91;77.10
51781;BME280;37844;57.126;24.288;2023-08-17T09:44:09;102251.09;;;28.63;76.91
51781;BME280;37844;57.126;24.288;2023-08-17T09:46:56;102259.78;;;27.96;79.06
51781;BME280;37844;57.126;24.288;2023-08-17T09:49:40;102273.09;;;27.67;77.83
51781;BME280;37844;57.126;24.288;2023-08-17T09:52:25;102276.09;;;27.57;81.51
51781;BME280;37844;57.126;24.288;2023-08-17T09:55:09;102282.81;;;27.40;84.19
51781;BME280;37844;57.126;24.288;2023-08-17T09:57:56;102286.59;;;27.33;84.85
51781;BME280;37844;57.126;24.288;2023-08-17T10:00:49;102293.59;;;27.07;83.79
51781;BME280;37844;57.126;24.288;2023-08-17T10:03:34;102291.44;;;26.91;85.13
51781;BME280;37844;57.126;24.288;2023-08-17T10:06:24;102291.38;;;26.94;85.95
51781;BME280;37844;57.126;24.288;2023-08-17T10:09:12;102291.19;;;26.70;88.16
51781;BME280;37844;57.126;24.288;2023-08-17T10:12:02;102291.19;;;26.70;91.59
51781;BME280;37844;57.126;24.288;2023-08-17T10:14:55;102282.84;;;26.84;90.84
51781;BME280;37844;57.126;24.288;2023-08-17T10:18:07;102289.91;;;26.83;90.79
51781;BME280;37844;57.126;24.288;2023-08-17T10:21:23;102289.59;;;26.64;90.76
51781;BME280;37844;57.126;24.288;2023-08-17T10:24:11;102293.19;;;26.62;89.32
51781;BME280;37844;57.126;24.288;2023-08-17T10:26:57;102285.56;;;26.51;90.24
51781;BME280;37844;57.126;24.288;2023-08-17T10:29:41;102294.03;;;26.64;89.03
51781;BME280;37844;57.126;24.288;2023-08-17T10:32:27;102297.03;;;26.81;90.54
51781;BME280;37844;57.126;24.288;2023-08-17T10:35:12;102309.38;;;26.81;87.55
51781;BME280;37844;57.126;24.288;2023-08-17T10:37:58;102307.75;;;26.77;87.30
51781;BME280;37844;57.126;24.288;2023-08-17T10:43:58;102315.78;;;26.42;85.48
51781;BME280;37844;57.126;24.288;2023-08-17T10:46:43;102311.81;;;26.26;85.60
51781;BME280;37844;57.126;24.288;2023-08-17T10:49:30;102321.03;;;26.13;86.96
51781;BME280;37844;57.126;24.288;2023-08-17T10:52:14;102317.59;;;26.08;88.76
51781;BME280;37844;57.126;24.288;2023-08-17T10:55:00;102328.13;;;26.11;90.02
51781;BME280;37844;57.126;24.288;2023-08-17T10:57:45;102338.69;;;26.11;88.66
51781;BME280;37844;57.126;24.288;2023-08-17T11:00:37;102330.69;;;26.12;90.18
51781;BME280;37844;57.126;24.288;2023-08-17T11:03:22;102341.56;;;26.01;89.92
51781;BME280;37844;57.126;24.288;2023-08-17T11:06:17;102342.31;;;26.07;91.44
51781;BME280;37844;57.126;24.288;2023-08-17T11:09:06;102358.81;;;25.80;90.98
51781;BME280;37844;57.126;24.288;2023-08-17T11:11:54;102386.69;;;25.56;93.06
51781;BME280;37844;57.126;24.288;2023-08-17T11:14:44;102408.41;;;25.30;92.51
51781;BME280;37844;57.126;24.288;2023-08-17T11:17:28;102419.88;;;25.29;97.33
51781;BME280;37844;57.126;24.288;2023-08-17T11:20:12;102422.00;;;25.10;99.91
51781;BME280;37844;57.126;24.288;2023-08-17T11:22:57;102422.25;;;25.00;100.00
51781;BME280;37844;57.126;24.288;2023-08-17T11:25:42;102423.34;;;24.88;100.00
51781;BME280;37844;57.126;24.288;2023-08-17T11:28:29;102422.78;;;24.72;100.00
51781;BME280;37844;57.126;24.288;2023-08-17T11:31:17;102401.72;;;24.70;100.00
51781;BME280;37844;57.126;24.288;2023-08-17T11:34:02;102413.25;;;24.65;100.00
51781;BME280;37844;57.126;24.288;2023-08-17T11:36:46;102396.75;;;24.53;100.00
51781;BME280;37844;57.126;24.288;2023-08-17T11:39:34;102371.59;;;24.37;100.00
51781;BME280;37844;57.126;24.288;2023-08-17T11:42:18;102372.75;;;24.21;100.00
51781;BME280;37844;57.126;24.288;2023-08-17T11:45:02;102374.63;;;24.14;100.00
51781;BME280;37844;57.126;24.288;2023-08-17T11:47:47;102374.78;;;24.05;100.00
51781;BME280;37844;57.126;24.288;2023-08-17T11:50:31;102364.31;;;24.02;100.00
51781;BME280;37844;57.126;24.288;2023-08-17T11:53:15;102369.88;;;23.83;100.00
51781;BME280;37844;57.126;24.288;2023-08-17T11:55:59;102373.53;;;23.75;100.00
51781;BME280;37844;57.126;24.288;2023-08-17T11:58:43;102375.41;;;23.66;100.00
51781;BME280;37844;57.126;24.288;2023-08-17T12:01:32;102372.69;;;23.69;100.00
51781;BME280;37844;57.126;24.288;2023-08-17T12:04:16;102370.19;;;23.62;100.00
51781;BME280;37844;57.126;24.288;2023-08-17T12:07:01;102364.91;;;23.63;100.00
51781;BME280;37844;57.126;24.288;2023-08-17T12:09:45;102369.34;;;23.61;100.00
51781;BME280;37844;57.126;24.288;2023-08-17T12:12:30;102375.53;;;23.59;100.00
51781;BME280;37844;57.126;24.288;2023-08-17T12:15:18;102362.31;;;23.62;100.00
51781;BME280;37844;57.126;24.288;2023-08-17T12:18:03;102352.81;;;23.52;100.00
51781;BME280;37844;57.126;24.288;2023-08-17T12:20:52;102342.97;;;23.63;100.00
51781;BME280;37844;57.126;24.288;2023-08-17T12:23:37;102343.94;;;23.57;100.00
51781;BME280;37844;57.126;24.288;2023-08-17T12:26:21;102343.88;;;23.62;100.00
51781;BME280;37844;57.126;24.288;2023-08-17T12:29:06;102335.13;;;23.61;100.00
51781;BME280;37844;57.126;24.288;2023-08-17T12:31:52;102333.28;;;23.65;100.00
51781;BME280;37844;57.126;24.288;2023-08-17T12:34:36;102318.25;;;23.71;100.00
51781;BME280;37844;57.126;24.288;2023-08-17T12:37:21;102305.09;;;23.70;100.00
51781;BME280;37844;57.126;24.288;2023-08-17T12:40:05;102308.53;;;23.77;100.00
51781;BME280;37844;57.126;24.288;2023-08-17T12:42:53;102310.19;;;23.82;100.00
51781;BME280;37844;57.126;24.288;2023-08-17T12:45:38;102308.22;;;23.97;100.00
51781;BME280;37844;57.126;24.288;2023-08-17T12:48:22;102301.34;;;23.86;100.00
51781;BME280;37844;57.126;24.288;2023-08-17T12:51:06;102303.03;;;23.90;100.00
51781;BME280;37844;57.126;24.288;2023-08-17T12:53:50;102296.09;;;23.86;100.00
51781;BME280;37844;57.126;24.288;2023-08-17T12:56:34;102301.34;;;23.88;100.00
51781;BME280;37844;57.126;24.288;2023-08-17T12:59:18;102310.31;;;23.76;100.00
51781;BME280;37844;57.126;24.288;2023-08-17T13:02:02;102319.00;;;23.80;100.00
51781;BME280;37844;57.126;24.288;2023-08-17T13:04:46;102321.47;;;23.90;100.00
51781;BME280;37844;57.126;24.288;2023-08-17T13:07:31;102315.44;;;23.84;100.00
51781;BME280;37844;57.126;24.288;2023-08-17T13:10:15;102314.38;;;23.94;100.00
51781;BME280;37844;57.126;24.288;2023-08-17T13:12:59;102314.59;;;23.83;100.00
51781;BME280;37844;57.126;24.288;2023-08-17T13:15:43;102304.03;;;23.85;100.00
51781;BME280;37844;57.126;24.288;2023-08-17T13:18:27;102301.44;;;23.82;100.00
51781;BME280;37844;57.126;24.288;2023-08-17T13:21:12;102311.94;;;23.83;100.00
51781;BME280;37844;57.126;24.288;2023-08-17T13:23:59;102309.25;;;23.86;100.00
51781;BME280;37844;57.126;24.288;2023-08-17T13:26:43;102307.31;;;23.98;100.00
51781;BME280;37844;57.126;24.288;2023-08-17T13:29:27;102302.72;;;24.07;100.00
51781;BME280;37844;57.126;24.288;2023-08-17T13:32:11;102303.72;;;24.02;100.00
51781;BME280;37844;57.126;24.288;2023-08-17T13:34:55;102300.19;;;24.01;100.00
51781;BME280;37844;57.126;24.288;2023-08-17T13:37:40;102301.13;;;23.99;100.00
51781;BME280;37844;57.126;24.288;2023-08-17T13:40:24;102302.97;;;23.94;100.00
51781;BME280;37844;57.126;24.288;2023-08-17T13:43:09;102311.16;;;23.78;100.00
51781;BME280;37844;57.126;24.288;2023-08-17T13:45:56;102304.06;;;23.82;100.00
51781;BME280;37844;57.126;24.288;2023-08-17T13:48:40;102301.16;;;23.97;100.00
51781;BME280;37844;57.126;24.288;2023-08-17T13:51:25;102307.22;;;24.01;100.00
51781;BME280;37844;57.126;24.288;2023-08-17T13:54:09;102299.56;;;23.88;100.00
51781;BME280;37844;57.126;24.288;2023-08-17T13:56:53;102301.56;;;23.73;100.00
51781;BME280;37844;57.126;24.288;2023-08-17T13:59:37;102294.56;;;23.73;100.00
51781;BME280;37844;57.126;24.288;2023-08-17T14:02:21;102298.78;;;23.83;100.00
51781;BME280;37844;57.126;24.288;2023-08-17T14:05:05;102298.84;;;23.80;100.00
51781;BME280;37844;57.126;24.288;2023-08-17T14:07:49;102288.44;;;23.71;100.00
51781;BME280;37844;57.126;24.288;2023-08-17T14:10:33;102292.91;;;23.66;100.00
51781;BME280;37844;57.126;24.288;2023-08-17T14:13:20;102291.94;;;23.70;100.00